Time;durP1;ratioP1;P1;durP2;ratioP2;P2;SDS_P1;SDS_P2;PMS_P1;PMS_P2;Temp;Humidity;BMP_temperature;BMP_pressure;BME280_temperature;BME280_humidity;BME280_pressure;Samples;Min_cycle;Max_cycle;Signal;HPM_P1;HPM_P2
2022/09/13 00:00:03;;;;;;;10.32;6.78;;;;;;;-144.48;100.00;62369.91;4970436;28;20050;-72
2022/09/13 00:02:28;;;;;;;10.70;6.78;;;;;;;-144.48;100.00;62369.91;4972631;28;20492;-70
2022/09/13 00:04:53;;;;;;;11.50;7.47;;;;;;;-144.48;100.00;62369.91;4971195;28;20031;-70
2022/09/13 00:07:18;;;;;;;11.05;7.00;;;;;;;-144.48;100.00;62369.91;4971564;28;20026;-72
2022/09/13 00:09:44;;;;;;;11.43;7.57;;;;;;;-144.48;100.00;62369.91;4972400;28;20081;-72
2022/09/13 00:12:09;;;;;;;10.68;7.50;;;;;;;-144.48;100.00;62369.91;4967990;28;20038;-71
2022/09/13 00:14:34;;;;;;;12.60;7.25;;;;;;;-144.48;100.00;62369.91;4971229;28;20030;-72
2022/09/13 00:17:00;;;;;;;13.50;6.75;;;;;;;-144.48;100.00;62369.91;4971798;28;20481;-72
2022/09/13 00:19:25;;;;;;;11.07;7.03;;;;;;;-144.48;100.00;62369.91;4971385;28;20049;-72
2022/09/13 00:21:50;;;;;;;16.42;6.90;;;;;;;-144.48;100.00;62369.91;4968010;28;20035;-72
2022/09/13 00:24:16;;;;;;;10.52;6.80;;;;;;;-144.48;100.00;62369.91;4972053;28;20034;-70
2022/09/13 00:26:41;;;;;;;10.35;6.95;;;;;;;-144.48;100.00;62369.91;4971395;28;20041;-68
2022/09/13 00:29:06;;;;;;;10.50;6.85;;;;;;;-144.48;100.00;62369.91;4971660;28;20105;-70
2022/09/13 00:31:32;;;;;;;11.80;7.35;;;;;;;-144.48;100.00;62369.91;4971492;28;20101;-68
2022/09/13 00:33:58;;;;;;;15.75;7.45;;;;;;;-144.48;100.00;62369.91;4973887;28;20105;-70
2022/09/13 00:36:24;;;;;;;19.52;8.18;;;;;;;-144.48;100.00;62369.91;4970420;28;20429;-72
2022/09/13 00:38:49;;;;;;;13.15;7.50;;;;;;;-144.48;100.00;62369.91;4971648;28;20030;-72
2022/09/13 00:41:17;;;;;;;13.02;7.25;;;;;;;-144.48;100.00;62369.91;4971848;28;20078;-72
2022/09/13 00:43:49;;;;;;;11.75;7.05;;;;;;;-144.48;100.00;62369.91;4983723;28;20103;-71
2022/09/13 00:46:31;;;;;;;14.90;7.20;;;;;;;-144.48;100.00;62369.91;4970536;28;20022;-71
2022/09/13 00:49:01;;;;;;;15.80;6.85;;;;;;;-144.48;100.00;62369.91;4966275;28;20030;-72
2022/09/13 00:51:27;;;;;;;12.10;7.18;;;;;;;-144.48;100.00;62369.91;4970553;28;20029;-71
2022/09/13 00:53:58;;;;;;;13.90;7.07;;;;;;;-144.48;100.00;62369.91;4972155;28;20082;-72
2022/09/13 00:56:28;;;;;;;12.95;7.47;;;;;;;-144.48;100.00;62369.91;4979187;28;20113;-71
2022/09/13 00:59:01;;;;;;;15.82;7.20;;;;;;;-144.48;100.00;62369.91;4979585;28;20050;-71
2022/09/13 01:01:34;;;;;;;13.07;7.57;;;;;;;-144.48;100.00;62369.91;4969383;28;20554;-68
2022/09/13 01:04:00;;;;;;;15.80;7.97;;;;;;;-144.48;100.00;62369.91;4971312;28;20026;-71
2022/09/13 01:06:29;;;;;;;10.98;7.03;;;;;;;-144.48;100.00;62369.91;4969632;28;20054;-72
2022/09/13 01:08:57;;;;;;;;;;;;;;;-144.48;100.00;62369.91;4971672;28;20038;-70
2022/09/13 01:11:31;;;;;;;14.18;7.03;;;;;;;-144.48;100.00;62369.91;4971048;28;19933;-69
2022/09/13 01:13:57;;;;;;;14.43;7.03;;;;;;;-144.48;100.00;62369.91;4970474;28;20108;-71
2022/09/13 01:16:22;;;;;;;10.90;6.88;;;;;;;-144.48;100.00;62369.91;4969435;28;20141;-70
2022/09/13 01:18:48;;;;;;;12.30;7.20;;;;;;;-144.48;100.00;62369.91;4971102;28;20034;-72
2022/09/13 01:21:49;;;;;;;14.30;7.30;;;;;;;-144.48;100.00;62369.91;4969672;28;20062;-69
2022/09/13 01:24:37;;;;;;;12.07;6.53;;;;;;;-144.48;100.00;62369.91;4970564;28;20022;-69
2022/09/13 01:27:08;;;;;;;15.43;7.18;;;;;;;-144.48;100.00;62369.91;4966797;28;20023;-71
2022/09/13 01:30:11;;;;;;;13.20;7.50;;;;;;;-144.48;100.00;62369.91;4967400;28;20019;-70
2022/09/13 01:32:59;;;;;;;12.60;7.18;;;;;;;-144.48;100.00;62369.91;4966936;28;20042;-69
2022/09/13 01:35:24;;;;;;;12.73;7.03;;;;;;;-144.48;100.00;62369.91;4968296;28;20118;-70
2022/09/13 01:38:05;;;;;;;12.35;7.60;;;;;;;-144.48;100.00;62369.91;4970120;28;20329;-69
2022/09/13 01:40:42;;;;;;;10.98;6.88;;;;;;;-144.48;100.00;62369.91;4969792;28;20030;-71
2022/09/13 01:43:36;;;;;;;12.45;7.60;;;;;;;-144.48;100.00;62369.91;4965302;28;20046;-71
2022/09/13 01:46:05;;;;;;;13.80;7.78;;;;;;;-144.48;100.00;62369.91;4969904;28;20105;-71
2022/09/13 01:48:52;;;;;;;15.73;7.55;;;;;;;-144.48;100.00;62369.91;4964465;28;20101;-71
2022/09/13 01:51:29;;;;;;;9.38;6.40;;;;;;;-144.48;100.00;62369.91;4969319;28;20031;-70
2022/09/13 01:54:07;;;;;;;10.23;6.80;;;;;;;-144.48;100.00;62369.91;4969300;28;20035;-71
2022/09/13 01:56:53;;;;;;;18.30;7.30;;;;;;;-144.48;100.00;62369.91;4969840;28;20039;-71
2022/09/13 01:59:27;;;;;;;12.95;7.35;;;;;;;-144.48;100.00;62369.91;4969693;28;20097;-71
2022/09/13 02:02:04;;;;;;;11.10;6.28;;;;;;;-144.48;100.00;62369.91;4970443;28;20623;-71
2022/09/13 02:04:39;;;;;;;11.80;6.45;;;;;;;-144.48;100.00;62369.91;4971131;28;20781;-70
2022/09/13 02:07:13;;;;;;;10.50;6.22;;;;;;;-144.48;100.00;62369.91;4973640;28;20493;-71
2022/09/13 02:09:43;;;;;;;14.07;6.35;;;;;;;-144.48;100.00;62369.91;4969420;28;20114;-70
2022/09/13 02:12:22;;;;;;;10.95;5.80;;;;;;;-144.48;100.00;62369.91;4974043;28;20027;-72
2022/09/13 02:15:06;;;;;;;15.40;5.50;;;;;;;-144.48;100.00;62369.91;4969833;28;20397;-71
2022/09/13 02:17:37;;;;;;;10.25;6.13;;;;;;;-144.48;100.00;62369.91;4973695;28;20035;-70
2022/09/13 02:20:11;;;;;;;11.00;6.13;;;;;;;-144.48;100.00;62369.91;4964635;28;20698;-69
2022/09/13 02:22:43;;;;;;;11.70;6.55;;;;;;;-144.48;100.00;62369.91;4970760;28;20054;-71
2022/09/13 02:25:13;;;;;;;12.77;6.22;;;;;;;-144.48;100.00;62369.91;4973887;28;20511;-69
2022/09/13 02:27:40;;;;;;;18.05;6.18;;;;;;;-144.48;100.00;62369.91;4973401;28;20102;-69
2022/09/13 02:30:09;;;;;;;9.77;4.97;;;;;;;-144.48;100.00;62369.91;4973019;28;20380;-71
2022/09/13 02:32:41;;;;;;;11.38;6.63;;;;;;;-144.48;100.00;62369.91;4974066;28;20432;-71
2022/09/13 02:35:32;;;;;;;10.60;5.88;;;;;;;-144.48;100.00;62369.91;4976153;28;20385;-70
2022/09/13 02:38:03;;;;;;;12.00;7.22;;;;;;;-144.48;100.00;62369.91;4973237;28;20461;-71
2022/09/13 02:40:36;;;;;;;9.75;5.85;;;;;;;-144.48;100.00;62369.91;4970718;28;20117;-70
2022/09/13 02:43:09;;;;;;;11.23;6.47;;;;;;;-144.48;100.00;62369.91;4973737;28;20128;-69
2022/09/13 02:45:48;;;;;;;14.85;6.80;;;;;;;-144.48;100.00;62369.91;4967811;28;20018;-72
2022/09/13 02:48:19;;;;;;;;;;;;;;;-144.48;100.00;62369.91;4973588;28;20027;-69
2022/09/13 02:50:53;;;;;;;13.45;5.80;;;;;;;-144.48;100.00;62369.91;4973006;28;20379;-70
2022/09/13 02:53:41;;;;;;;16.38;6.25;;;;;;;-144.48;100.00;62369.91;4973518;28;20121;-71
2022/09/13 02:56:27;;;;;;;14.15;6.32;;;;;;;-144.48;100.00;62369.91;4973684;28;20030;-71
2022/09/13 02:59:13;;;;;;;12.00;6.95;;;;;;;-144.48;100.00;62369.91;4970832;28;20038;-71
2022/09/13 03:01:40;;;;;;;12.93;6.78;;;;;;;-144.48;100.00;62369.91;4968395;28;20069;-70
2022/09/13 03:04:06;;;;;;;13.27;7.82;;;;;;;-144.48;100.00;62369.91;4973415;28;20023;-70
2022/09/13 03:06:32;;;;;;;41.22;7.03;;;;;;;-144.48;100.00;62369.91;4971739;28;20034;-71
2022/09/13 03:09:02;;;;;;;11.20;6.22;;;;;;;-144.48;100.00;62369.91;4972842;28;20115;-70
2022/09/13 03:11:55;;;;;;;10.25;6.47;;;;;;;-144.48;100.00;62369.91;4973243;28;20025;-69
2022/09/13 03:14:44;;;;;;;13.18;6.60;;;;;;;-144.48;100.00;62369.91;4972456;28;20034;-69
2022/09/13 03:17:40;;;;;;;11.15;6.32;;;;;;;-144.48;100.00;62369.91;4967345;28;20031;-69
2022/09/13 03:20:11;;;;;;;11.48;6.22;;;;;;;-144.48;100.00;62369.91;4972649;28;20019;-69
2022/09/13 03:23:08;;;;;;;11.85;6.20;;;;;;;-144.48;100.00;62369.91;4968665;28;20049;-71
2022/09/13 03:26:05;;;;;;;12.35;6.50;;;;;;;-144.48;100.00;62369.91;4971550;28;20023;-70
2022/09/13 03:28:52;;;;;;;12.73;6.40;;;;;;;-144.48;100.00;62369.91;4971945;28;20382;-71
2022/09/13 03:31:30;;;;;;;10.40;6.13;;;;;;;-144.48;100.00;62369.91;4970866;28;20019;-69
2022/09/13 03:34:19;;;;;;;11.85;6.03;;;;;;;-144.48;100.00;62369.91;4974657;28;20034;-71
2022/09/13 03:36:54;;;;;;;16.35;6.38;;;;;;;-144.48;100.00;62369.91;4971695;28;20037;-70
2022/09/13 03:40:01;;;;;;;10.05;5.57;;;;;;;-144.48;100.00;62369.91;4971142;28;20026;-69
2022/09/13 03:43:24;;;;;;;14.23;7.55;;;;;;;-144.48;100.00;62369.91;4959919;28;20139;-69
2022/09/13 03:45:55;;;;;;;10.82;6.80;;;;;;;-144.48;100.00;62369.91;4964846;28;20031;-70
2022/09/13 03:48:22;;;;;;;12.30;6.25;;;;;;;-144.48;100.00;62369.91;4971597;28;20038;-69
2022/09/13 03:50:48;;;;;;;15.18;6.45;;;;;;;-144.48;100.00;62369.91;4971847;28;20468;-72
2022/09/13 03:53:19;;;;;;;16.90;5.47;;;;;;;-144.48;100.00;62369.91;4972117;28;20504;-71
2022/09/13 03:55:45;;;;;;;13.63;6.78;;;;;;;-144.48;100.00;62369.91;4970848;28;20108;-71
2022/09/13 03:58:17;;;;;;;15.25;6.82;;;;;;;-144.48;100.00;62369.91;4971538;28;20125;-69
2022/09/13 04:00:43;;;;;;;15.13;6.80;;;;;;;-144.48;100.00;62369.91;4972087;28;20046;-69
2022/09/13 04:03:09;;;;;;;11.27;6.05;;;;;;;-144.48;100.00;62369.91;4972370;28;20031;-69
2022/09/13 04:05:35;;;;;;;16.35;6.95;;;;;;;-144.48;100.00;62369.91;4972000;28;20080;-71
2022/09/13 04:08:02;;;;;;;13.98;6.50;;;;;;;-144.48;100.00;62369.91;4972448;28;20030;-72
2022/09/13 04:10:30;;;;;;;11.23;6.00;;;;;;;-144.48;100.00;62369.91;4972044;28;20019;-72
2022/09/13 04:12:56;;;;;;;16.92;6.60;;;;;;;-144.48;100.00;62369.91;4967922;28;20173;-72
2022/09/13 04:15:23;;;;;;;13.60;6.00;;;;;;;-144.48;100.00;62369.91;4980675;23;20137;-69
2022/09/13 04:17:49;;;;;;;11.50;5.60;;;;;;;-144.48;100.00;62369.91;4970243;28;20114;-68
2022/09/13 04:20:14;;;;;;;10.25;6.20;;;;;;;-144.48;100.00;62369.91;4971166;28;20134;-69
2022/09/13 04:22:39;;;;;;;12.07;6.47;;;;;;;-144.48;100.00;62369.91;4970241;28;20077;-69
2022/09/13 04:25:05;;;;;;;12.90;6.80;;;;;;;-144.48;100.00;62369.91;4970421;28;20034;-70
2022/09/13 04:27:31;;;;;;;13.55;7.88;;;;;;;-144.48;100.00;62369.91;4967986;28;20023;-69
2022/09/13 04:29:56;;;;;;;17.50;7.13;;;;;;;-144.48;100.00;62369.91;4968520;28;20370;-69
2022/09/13 04:32:22;;;;;;;14.60;6.85;;;;;;;-144.48;100.00;62369.91;4970738;28;20709;-69
2022/09/13 04:34:47;;;;;;;15.23;7.45;;;;;;;-144.48;100.00;62369.91;4969642;28;20113;-68
2022/09/13 04:37:12;;;;;;;12.95;6.88;;;;;;;-144.48;100.00;62369.91;4970276;28;20380;-70
2022/09/13 04:39:38;;;;;;;14.73;7.28;;;;;;;-144.48;100.00;62369.91;4970200;28;20023;-70
2022/09/13 04:42:04;;;;;;;14.85;6.85;;;;;;;-144.48;100.00;62369.91;4970503;28;20023;-70
2022/09/13 04:44:29;;;;;;;12.15;6.78;;;;;;;-144.48;100.00;62369.91;4967818;28;20037;-68
2022/09/13 04:46:54;;;;;;;12.48;6.35;;;;;;;-144.48;100.00;62369.91;4963157;28;20553;-67
2022/09/13 04:49:20;;;;;;;14.15;7.05;;;;;;;-144.48;100.00;62369.91;4964581;28;20018;-69
2022/09/13 04:51:46;;;;;;;12.30;6.95;;;;;;;-144.48;100.00;62369.91;4964155;28;20027;-69
2022/09/13 04:54:12;;;;;;;14.35;6.97;;;;;;;-144.48;100.00;62369.91;4968230;28;20035;-69
2022/09/13 04:56:38;;;;;;;12.75;6.78;;;;;;;-144.48;100.00;62369.91;4967686;28;20023;-68
2022/09/13 04:59:03;;;;;;;12.90;7.13;;;;;;;-144.48;100.00;62369.91;4970329;28;20026;-69
2022/09/13 05:01:29;;;;;;;14.02;7.65;;;;;;;-144.48;100.00;62369.91;4968944;28;20110;-67
2022/09/13 05:03:54;;;;;;;12.20;7.32;;;;;;;-144.48;100.00;62369.91;4969164;28;20038;-69
2022/09/13 05:06:20;;;;;;;24.90;7.50;;;;;;;-144.48;100.00;62369.91;4967774;28;20037;-69
2022/09/13 05:08:54;;;;;;;12.00;6.78;;;;;;;-144.48;100.00;62369.91;4970861;28;20419;-69
2022/09/13 05:11:25;;;;;;;13.23;6.45;;;;;;;-144.48;100.00;62369.91;4965312;28;20106;-68
2022/09/13 05:13:53;;;;;;;16.73;7.18;;;;;;;-144.48;100.00;62369.91;4970565;28;20026;-69
2022/09/13 05:16:20;;;;;;;14.80;7.93;;;;;;;-144.48;100.00;62369.91;4970347;28;20055;-70
2022/09/13 05:18:45;;;;;;;16.63;6.65;;;;;;;-144.48;100.00;62369.91;4975166;28;20030;-71
2022/09/13 05:21:11;;;;;;;12.75;7.32;;;;;;;-144.48;100.00;62369.91;4959436;28;20570;-70
2022/09/13 05:23:37;;;;;;;16.25;6.43;;;;;;;-144.48;100.00;62369.91;4959344;28;20038;-70
2022/09/13 05:26:04;;;;;;;12.88;6.70;;;;;;;-144.48;100.00;62369.91;4970161;28;20050;-70
2022/09/13 05:28:32;;;;;;;12.90;7.35;;;;;;;-144.48;100.00;62369.91;4969583;28;20747;-71
2022/09/13 05:30:59;;;;;;;10.70;6.22;;;;;;;-144.48;100.00;62369.91;4970603;28;20026;-70
2022/09/13 05:33:27;;;;;;;12.70;6.38;;;;;;;-144.48;100.00;62369.91;4972959;28;20441;-69
2022/09/13 05:35:52;;;;;;;17.55;6.78;;;;;;;-144.48;100.00;62369.91;4969195;28;20042;-69
2022/09/13 05:38:18;;;;;;;16.85;7.15;;;;;;;-144.48;100.00;62369.91;4970078;28;20060;-70
2022/09/13 05:40:44;;;;;;;15.18;7.28;;;;;;;-144.48;100.00;62369.91;4970903;28;20027;-69
2022/09/13 05:43:09;;;;;;;16.38;6.57;;;;;;;-144.48;100.00;62369.91;4970425;28;20026;-68
2022/09/13 05:45:34;;;;;;;16.60;7.20;;;;;;;-144.48;100.00;62369.91;4969474;28;20026;-69
2022/09/13 05:48:00;;;;;;;13.95;6.88;;;;;;;-144.48;100.00;62369.91;4972639;28;20173;-69
2022/09/13 05:50:25;;;;;;;12.35;6.90;;;;;;;-144.48;100.00;62369.91;4968886;28;20106;-69
2022/09/13 05:52:54;;;;;;;11.90;6.20;;;;;;;-144.48;100.00;62369.91;4970200;28;20497;-70
2022/09/13 05:55:20;;;;;;;;;;;;;;;-144.48;100.00;62369.91;4970572;28;20401;-68
2022/09/13 05:57:46;;;;;;;12.60;6.20;;;;;;;-144.48;100.00;62369.91;4969417;28;19982;-68
2022/09/13 06:00:13;;;;;;;17.00;6.75;;;;;;;-144.48;100.00;62369.91;4969364;28;20056;-69
2022/09/13 06:02:38;;;;;;;13.88;6.68;;;;;;;-144.48;100.00;62369.91;4970742;28;20031;-67
2022/09/13 06:05:04;;;;;;;12.75;6.50;;;;;;;-144.48;100.00;62369.91;4975962;28;20022;-69
2022/09/13 06:07:29;;;;;;;13.52;6.68;;;;;;;-144.48;100.00;62369.91;4968005;28;20023;-69
2022/09/13 06:09:54;;;;;;;19.15;6.80;;;;;;;-144.48;100.00;62369.91;4970744;28;20557;-71
2022/09/13 06:12:20;;;;;;;11.75;6.40;;;;;;;-144.48;100.00;62369.91;4962155;28;20105;-70
2022/09/13 06:14:45;;;;;;;14.05;6.25;;;;;;;-144.48;100.00;62369.91;4969560;28;20062;-68
2022/09/13 06:17:10;;;;;;;16.73;6.70;;;;;;;-144.48;100.00;62369.91;4969568;28;20038;-70
2022/09/13 06:19:36;;;;;;;25.23;6.65;;;;;;;-144.48;100.00;62369.91;4978863;28;20124;-70
2022/09/13 06:22:01;;;;;;;13.95;7.35;;;;;;;-144.48;100.00;62369.91;4969810;28;20374;-70
2022/09/13 06:24:26;;;;;;;13.70;6.38;;;;;;;-144.48;100.00;62369.91;4970795;28;20066;-70
2022/09/13 06:26:52;;;;;;;14.68;6.90;;;;;;;-144.48;100.00;62369.91;4970155;28;20400;-70
2022/09/13 06:29:18;;;;;;;23.73;10.35;;;;;;;-144.48;100.00;62369.91;4969616;28;20116;-70
2022/09/13 06:31:44;;;;;;;18.20;9.20;;;;;;;-144.48;100.00;62369.91;4970134;28;20034;-70
2022/09/13 06:34:13;;;;;;;17.00;7.10;;;;;;;-144.48;100.00;62369.91;4974531;28;20092;-69
2022/09/13 06:36:38;;;;;;;;;;;;;;;-144.48;100.00;62369.91;4971500;28;20030;-69
2022/09/13 06:39:05;;;;;;;45.22;8.07;;;;;;;-144.48;100.00;62369.91;4970927;28;19973;-69
2022/09/13 06:41:31;;;;;;;12.63;7.45;;;;;;;-144.48;100.00;62369.91;4970006;28;20026;-68
2022/09/13 06:43:58;;;;;;;13.52;6.95;;;;;;;-144.48;100.00;62369.91;4970085;28;20023;-72
2022/09/13 06:46:28;;;;;;;12.85;7.30;;;;;;;-144.48;100.00;62369.91;4971051;28;20054;-70
2022/09/13 06:48:54;;;;;;;14.57;7.10;;;;;;;-144.48;100.00;62369.91;4970162;28;20110;-68
2022/09/13 06:51:23;;;;;;;15.55;6.80;;;;;;;-144.48;100.00;62369.91;4969771;28;20038;-68
2022/09/13 06:53:50;;;;;;;12.80;7.50;;;;;;;-144.48;100.00;62369.91;4973427;28;20022;-69
2022/09/13 06:56:16;;;;;;;17.48;7.10;;;;;;;-144.48;100.00;62369.91;4972341;28;20098;-67
2022/09/13 06:58:42;;;;;;;15.00;7.72;;;;;;;-144.48;100.00;62369.91;4964293;28;20121;-68
2022/09/13 07:01:15;;;;;;;16.45;7.25;;;;;;;-144.48;100.00;62369.91;4972298;28;20110;-69
2022/09/13 07:03:43;;;;;;;17.52;7.90;;;;;;;-144.48;100.00;62369.91;4973233;28;20037;-68
2022/09/13 07:06:14;;;;;;;18.93;7.70;;;;;;;-144.48;100.00;62369.91;4974233;28;20826;-69
2022/09/13 07:08:41;;;;;;;13.05;6.82;;;;;;;-144.48;100.00;62369.91;4964678;28;20775;-70
2022/09/13 07:11:06;;;;;;;14.93;8.27;;;;;;;-144.48;100.00;62369.91;4967061;28;20496;-68
2022/09/13 07:14:19;;;;;;;21.02;7.93;;;;;;;-144.48;100.00;62369.91;4973091;28;20015;-75
2022/09/13 07:16:45;;;;;;;13.52;7.60;;;;;;;-144.48;100.00;62369.91;4963714;28;20550;-68
2022/09/13 07:19:14;;;;;;;20.25;9.50;;;;;;;-144.48;100.00;62369.91;4963445;28;20022;-69
2022/09/13 07:21:40;;;;;;;18.55;8.85;;;;;;;-144.48;100.00;62369.91;4963176;28;20034;-68
2022/09/13 07:24:05;;;;;;;18.02;7.95;;;;;;;-144.48;100.00;62369.91;4966692;28;20062;-69
2022/09/13 07:26:30;;;;;;;15.52;9.10;;;;;;;-144.48;100.00;62369.91;4965237;28;20138;-68
2022/09/13 07:28:58;;;;;;;18.50;8.00;;;;;;;-144.48;100.00;62369.91;4964136;28;20122;-67
2022/09/13 07:31:23;;;;;;;22.13;12.15;;;;;;;-144.48;100.00;62369.91;4965449;28;20617;-69
2022/09/13 07:33:57;;;;;;;43.97;24.55;;;;;;;-144.48;100.00;62369.91;4966373;28;20030;-69
2022/09/13 07:36:23;;;;;;;31.38;15.55;;;;;;;-144.48;100.00;62369.91;4962801;28;20050;-75
2022/09/13 07:38:48;;;;;;;19.52;10.90;;;;;;;-144.48;100.00;62369.91;4964505;28;20070;-69
2022/09/13 07:41:17;;;;;;;15.90;8.75;;;;;;;-144.48;100.00;62369.91;4965998;28;20070;-68
2022/09/13 07:43:43;;;;;;;18.58;8.55;;;;;;;-144.48;100.00;62369.91;4963431;28;20053;-69
2022/09/13 07:46:13;;;;;;;21.80;8.48;;;;;;;-144.48;100.00;62369.91;4963112;28;20038;-69
2022/09/13 07:48:41;;;;;;;18.27;8.60;;;;;;;-144.48;100.00;62369.91;4964258;28;20038;-68
2022/09/13 07:51:14;;;;;;;16.33;8.67;;;;;;;-144.48;100.00;62369.91;4961331;28;20026;-68
2022/09/13 07:53:41;;;;;;;12.77;7.30;;;;;;;-144.48;100.00;62369.91;4963870;28;20046;-68
2022/09/13 07:56:09;;;;;;;11.60;7.45;;;;;;;-144.48;100.00;62369.91;4964908;28;20034;-67
2022/09/13 07:58:36;;;;;;;20.07;7.93;;;;;;;-144.48;100.00;62369.91;4962041;28;20120;-69
2022/09/13 08:01:08;;;;;;;13.65;8.50;;;;;;;-144.48;100.00;62369.91;4964100;28;20371;-68
2022/09/13 08:03:34;;;;;;;20.73;9.02;;;;;;;-144.48;100.00;62369.91;4965764;28;20034;-69
2022/09/13 08:06:01;;;;;;;17.42;8.43;;;;;;;-144.48;100.00;62369.91;4963580;28;20587;-67
2022/09/13 08:08:27;;;;;;;17.90;8.15;;;;;;;-144.48;100.00;62369.91;4963596;28;20097;-68
2022/09/13 08:10:52;;;;;;;13.45;7.45;;;;;;;-144.48;100.00;62369.91;4964771;28;20045;-68
2022/09/13 08:13:17;;;;;;;12.45;6.85;;;;;;;-144.48;100.00;62369.91;4965198;28;20023;-68
2022/09/13 08:15:43;;;;;;;13.00;7.47;;;;;;;-144.48;100.00;62369.91;4964509;28;20037;-67
2022/09/13 08:18:09;;;;;;;18.20;7.45;;;;;;;-144.48;100.00;62369.91;4962885;28;20031;-69
2022/09/13 08:20:36;;;;;;;22.15;7.25;;;;;;;-144.48;100.00;62369.91;4964427;28;20034;-69
2022/09/13 08:23:01;;;;;;;15.70;7.65;;;;;;;-144.48;100.00;62369.91;4964445;28;20039;-68
2022/09/13 08:25:26;;;;;;;18.52;6.80;;;;;;;-144.48;100.00;62369.91;4964949;28;20031;-68
2022/09/13 08:27:52;;;;;;;14.18;7.00;;;;;;;-144.48;100.00;62369.91;4963675;28;20065;-67
2022/09/13 08:30:17;;;;;;;12.07;6.80;;;;;;;-144.48;100.00;62369.91;4962629;28;20484;-69
2022/09/13 08:32:42;;;;;;;12.32;6.40;;;;;;;-144.48;100.00;62369.91;4965323;28;20404;-69
2022/09/13 08:35:08;;;;;;;13.10;6.22;;;;;;;-144.48;100.00;62369.91;4964802;28;20496;-71
2022/09/13 08:37:34;;;;;;;10.70;6.20;;;;;;;-144.48;100.00;62369.91;4962108;28;20476;-69
2022/09/13 08:39:59;;;;;;;15.00;6.38;;;;;;;-144.48;100.00;62369.91;4964841;28;20035;-70
2022/09/13 08:42:30;;;;;;;10.70;6.22;;;;;;;-144.48;100.00;62369.91;4964510;28;20034;-71
2022/09/13 08:44:58;;;;;;;16.48;8.45;;;;;;;-144.48;100.00;62369.91;4964134;28;20102;-69
2022/09/13 08:47:45;;;;;;;12.00;5.65;;;;;;;-144.48;100.00;62369.91;4963947;28;20035;-69
2022/09/13 08:50:25;;;;;;;14.10;6.30;;;;;;;-144.48;100.00;62369.91;4964750;28;20069;-68
2022/09/13 08:53:02;;;;;;;12.45;5.97;;;;;;;-144.48;100.00;62369.91;4963339;28;20023;-70
2022/09/13 08:55:51;;;;;;;14.52;7.55;;;;;;;-144.48;100.00;62369.91;4964107;28;20810;-68
2022/09/13 08:58:50;;;;;;;19.25;6.15;;;;;;;-144.48;100.00;62369.91;4957617;28;20117;-68
2022/09/13 09:01:40;;;;;;;11.18;6.15;;;;;;;-144.48;100.00;62369.91;4963267;28;20027;-69
2022/09/13 09:04:19;;;;;;;12.32;5.90;;;;;;;-144.48;100.00;62369.91;4964629;28;20031;-68
2022/09/13 09:06:44;;;;;;;;;;;;;;;-144.48;100.00;62369.91;4963758;28;20031;-69
2022/09/13 09:09:17;;;;;;;13.70;6.57;;;;;;;-144.48;100.00;62369.91;4961410;28;19929;-70
2022/09/13 09:11:53;;;;;;;10.43;6.32;;;;;;;-144.48;100.00;62369.91;4964549;28;20085;-69
2022/09/13 09:14:30;;;;;;;19.55;6.95;;;;;;;-144.48;100.00;62369.91;4961965;28;20023;-69
2022/09/13 09:17:06;;;;;;;15.82;6.93;;;;;;;-144.48;100.00;62369.91;4963846;28;20043;-69
2022/09/13 09:19:39;;;;;;;19.38;8.35;;;;;;;-144.48;100.00;62369.91;4962795;28;20050;-70
2022/09/13 09:22:12;;;;;;;18.92;8.23;;;;;;;-144.48;100.00;62369.91;4963247;28;20085;-69
2022/09/13 09:24:39;;;;;;;16.67;5.97;;;;;;;-144.48;100.00;62369.91;4964645;28;20030;-68
2022/09/13 09:27:17;;;;;;;12.98;6.30;;;;;;;-144.48;100.00;62369.91;4964049;28;20034;-70
2022/09/13 09:29:43;;;;;;;9.60;5.97;;;;;;;-144.48;100.00;62369.91;4962012;28;20033;-69
2022/09/13 09:32:24;;;;;;;10.48;5.60;;;;;;;-144.48;100.00;62369.91;4964432;28;20468;-67
2022/09/13 09:35:21;;;;;;;9.60;5.30;;;;;;;-144.48;100.00;62369.91;4962929;28;20027;-69
2022/09/13 09:38:11;;;;;;;17.13;5.20;;;;;;;-144.48;100.00;62369.91;4952512;28;20039;-71
2022/09/13 09:40:37;;;;;;;9.05;5.82;;;;;;;-144.48;100.00;62369.91;4965620;28;20034;-69
2022/09/13 09:43:23;;;;;;;15.70;5.32;;;;;;;-144.48;100.00;62369.91;4964126;28;20505;-69
2022/09/13 09:45:51;;;;;;;9.23;5.00;;;;;;;-144.48;100.00;62369.91;4963013;28;20027;-69
2022/09/13 09:48:21;;;;;;;13.55;4.88;;;;;;;-144.48;100.00;62369.91;4961564;28;20027;-69
2022/09/13 09:50:51;;;;;;;9.45;5.25;;;;;;;-144.48;100.00;62369.91;4963916;28;20219;-69
2022/09/13 09:53:25;;;;;;;7.82;3.97;;;;;;;-144.48;100.00;62369.91;4962716;28;20322;-69
2022/09/13 09:56:27;;;;;;;9.43;4.70;;;;;;;-144.48;100.00;62369.91;4963545;28;20129;-68
2022/09/13 09:58:54;;;;;;;13.88;5.30;;;;;;;-144.48;100.00;62369.91;4961946;28;20110;-69
2022/09/13 10:01:34;;;;;;;6.18;3.70;;;;;;;-144.48;100.00;62369.91;4961763;28;20525;-69
2022/09/13 10:04:11;;;;;;;9.13;3.92;;;;;;;-144.48;100.00;62369.91;4963431;28;20034;-68
2022/09/13 10:06:39;;;;;;;8.65;3.80;;;;;;;-144.48;100.00;62369.91;4961770;28;20069;-69
2022/09/13 10:09:13;;;;;;;7.70;4.13;;;;;;;-144.48;100.00;62369.91;4961909;28;20086;-69
2022/09/13 10:11:46;;;;;;;7.50;4.57;;;;;;;-144.48;100.00;62369.91;4963272;28;20409;-69
2022/09/13 10:14:33;;;;;;;11.02;4.38;;;;;;;-144.48;100.00;62369.91;4963449;28;20088;-71
2022/09/13 10:17:26;;;;;;;6.80;3.28;;;;;;;-144.48;100.00;62369.91;4963521;28;20057;-69
2022/09/13 10:20:25;;;;;;;7.13;3.92;;;;;;;-144.48;100.00;62369.91;4963075;28;20035;-69
2022/09/13 10:23:11;;;;;;;7.10;3.72;;;;;;;-144.48;100.00;62369.91;4960582;28;20085;-69
2022/09/13 10:25:37;;;;;;;6.45;3.58;;;;;;;-144.48;100.00;62369.91;4961992;28;20107;-68
2022/09/13 10:28:08;;;;;;;9.63;3.38;;;;;;;-144.48;100.00;62369.91;4962125;28;20615;-69
2022/09/13 10:30:48;;;;;;;6.20;2.92;;;;;;;-144.48;100.00;62369.91;4976936;23;20141;-74
2022/09/13 10:33:32;;;;;;;6.60;3.67;;;;;;;-144.48;100.00;62369.91;4965863;28;20038;-74
2022/09/13 10:36:03;;;;;;;6.65;3.05;;;;;;;-144.48;100.00;62369.91;4966904;28;20066;-74
2022/09/13 10:38:37;;;;;;;6.32;3.22;;;;;;;-144.48;100.00;62369.91;4966054;28;20035;-76
2022/09/13 10:41:07;;;;;;;6.68;3.15;;;;;;;-144.48;100.00;62369.91;4966876;28;20557;-74
2022/09/13 10:43:34;;;;;;;5.97;3.20;;;;;;;-144.48;100.00;62369.91;4966030;28;20054;-75
2022/09/13 10:46:02;;;;;;;8.82;3.25;;;;;;;-144.48;100.00;62369.91;4966676;28;20034;-75
2022/09/13 10:48:30;;;;;;;;;;;;;;;-144.48;100.00;62369.91;4966102;28;20049;-74
2022/09/13 10:51:06;;;;;;;12.00;3.60;;;;;;;-144.48;100.00;62369.91;4967177;28;19967;-76
2022/09/13 10:53:38;;;;;;;6.97;2.80;;;;;;;-144.48;100.00;62369.91;4967918;28;20034;-76
2022/09/13 10:56:05;;;;;;;6.18;2.90;;;;;;;-144.48;100.00;62369.91;4964833;28;20550;-76
2022/09/13 10:58:31;;;;;;;7.10;2.80;;;;;;;-144.48;100.00;62369.91;4966010;28;20034;-70
2022/09/13 11:01:20;;;;;;;6.88;2.60;;;;;;;-144.48;100.00;62369.91;4966294;28;20030;-72
2022/09/13 11:04:10;;;;;;;8.05;3.22;;;;;;;-144.48;100.00;62369.91;4965681;28;20019;-75
2022/09/13 11:06:58;;;;;;;5.18;2.83;;;;;;;-144.48;100.00;62369.91;4966091;28;20031;-74
2022/09/13 11:09:32;;;;;;;;;;;;;;;-144.48;100.00;62369.91;4966347;28;20028;-73
2022/09/13 11:12:17;;;;;;;5.40;3.05;;;;;;;-144.48;100.00;62369.91;4967031;28;19921;-71
2022/09/13 11:14:55;;;;;;;6.40;2.95;;;;;;;-144.48;100.00;62369.91;4966940;28;20166;-77
2022/09/13 11:18:05;;;;;;;7.78;2.97;;;;;;;-144.48;100.00;62369.91;4966218;28;20058;-73
2022/09/13 11:20:36;;;;;;;12.07;3.25;;;;;;;-144.48;100.00;62369.91;4963761;28;20130;-74
2022/09/13 11:23:13;;;;;;;9.63;3.22;;;;;;;-144.48;100.00;62369.91;4967199;28;20031;-76
2022/09/13 11:26:08;;;;;;;6.55;3.72;;;;;;;-144.48;100.00;62369.91;4967284;28;20065;-75